Time;durP1;ratioP1;P1;durP2;ratioP2;P2;SDS_P1;SDS_P2;PMS_P1;PMS_P2;Temp;Humidity;BMP_temperature;BMP_pressure;BME280_temperature;BME280_humidity;BME280_pressure;Samples;Min_cycle;Max_cycle;Signal;HPM_P1;HPM_P2
2022/05/15 00:02:47;;;;;;;1.00;0.90;;;21.20;93.40;;;;;;5129227;27;20432;-64
2022/05/15 00:05:20;;;;;;;0.50;0.50;;;21.10;93.80;;;;;;5126971;27;20511;-64
2022/05/15 00:07:52;;;;;;;0.50;0.40;;;21.00;93.80;;;;;;5127340;27;20441;-63
2022/05/15 00:10:23;;;;;;;0.50;0.50;;;21.00;94.50;;;;;;5134881;27;20822;-63
2022/05/15 00:12:53;;;;;;;0.43;0.43;;;21.00;95.00;;;;;;5132060;27;20507;-64
2022/05/15 00:15:24;;;;;;;0.80;0.60;;;21.10;93.80;;;;;;5128426;27;20447;-62
2022/05/15 00:17:56;;;;;;;0.60;0.60;;;21.10;93.80;;;;;;5137464;27;20452;-63
2022/05/15 00:20:28;;;;;;;1.47;0.53;;;21.40;94.40;;;;;;5136397;27;20453;-63
2022/05/15 00:22:59;;;;;;;0.70;0.50;;;21.70;93.80;;;;;;5139785;27;20516;-62
2022/05/15 00:25:30;;;;;;;1.57;0.70;;;21.80;93.50;;;;;;5119597;28;20442;-62
2022/05/15 00:28:01;;;;;;;0.50;0.50;;;21.80;93.30;;;;;;5124098;27;20428;-63
2022/05/15 00:30:33;;;;;;;0.57;0.40;;;22.00;93.10;;;;;;5116600;27;20451;-63
2022/05/15 00:33:04;;;;;;;0.50;0.50;;;21.90;93.70;;;;;;5141328;27;20851;-64
2022/05/15 00:35:38;;;;;;;1.03;0.97;;;22.00;94.20;;;;;;5139062;27;20486;-63
2022/05/15 00:38:10;;;;;;;0.50;0.43;;;21.90;94.80;;;;;;5112976;27;20546;-63
2022/05/15 00:40:43;;;;;;;1.53;0.90;;;22.00;95.30;;;;;;5118761;28;20432;-63
2022/05/15 00:43:15;;;;;;;1.23;0.60;;;22.20;95.00;;;;;;5121568;27;20488;-63
2022/05/15 00:45:45;;;;;;;0.97;0.50;;;22.20;93.90;;;;;;5129796;27;20467;-62
2022/05/15 00:48:16;;;;;;;1.07;0.57;;;22.20;93.50;;;;;;5121836;27;20461;-63
2022/05/15 00:50:49;;;;;;;0.60;0.53;;;22.10;93.70;;;;;;5123874;27;20471;-62
2022/05/15 00:53:20;;;;;;;0.63;0.50;;;21.90;93.30;;;;;;5120959;28;20485;-62
2022/05/15 00:55:52;;;;;;;0.90;0.80;;;21.80;93.90;;;;;;5120561;27;20476;-62
2022/05/15 00:58:27;;;;;;;1.87;0.80;;;21.80;94.40;;;;;;5125503;27;20450;-64
2022/05/15 01:00:58;;;;;;;0.43;0.43;;;21.90;93.80;;;;;;5123545;28;20523;-64
2022/05/15 01:03:29;;;;;;;0.60;0.57;;;21.90;93.50;;;;;;5122967;28;20507;-64
2022/05/15 01:06:01;;;;;;;0.57;0.43;;;21.60;93.80;;;;;;5122956;28;20454;-63
2022/05/15 01:08:32;;;;;;;1.33;0.50;;;21.50;93.90;;;;;;5133236;27;20456;-64
2022/05/15 01:11:08;;;;;;;0.50;0.50;;;21.40;93.20;;;;;;5123608;27;20476;-64
2022/05/15 01:13:42;;;;;;;0.60;0.60;;;21.30;94.00;;;;;;5120728;27;20463;-64
2022/05/15 01:16:14;;;;;;;1.03;0.67;;;21.20;93.80;;;;;;5124521;27;20433;-63
2022/05/15 01:18:47;;;;;;;0.97;0.97;;;21.10;94.80;;;;;;5121777;28;20447;-64
2022/05/15 01:21:27;;;;;;;1.13;0.50;;;21.00;94.30;;;;;;5126330;27;20457;-64
2022/05/15 01:24:00;;;;;;;0.50;0.50;;;20.90;93.90;;;;;;5107313;28;20532;-67
2022/05/15 01:26:31;;;;;;;0.70;0.70;;;20.90;94.60;;;;;;5129315;27;20446;-65
2022/05/15 01:29:05;;;;;;;0.60;0.40;;;21.00;94.40;;;;;;5124837;27;20438;-65
2022/05/15 01:31:37;;;;;;;0.40;0.40;;;21.00;94.70;;;;;;5140185;27;20480;-65
2022/05/15 01:34:13;;;;;;;0.70;0.60;;;21.10;94.00;;;;;;5115861;27;20507;-64
2022/05/15 01:36:45;;;;;;;0.50;0.50;;;21.10;94.20;;;;;;5127761;27;20801;-63
2022/05/15 01:39:16;;;;;;;1.00;0.60;;;21.00;94.50;;;;;;5121456;28;20480;-62
2022/05/15 01:41:47;;;;;;;0.50;0.50;;;20.90;94.80;;;;;;5119201;27;20443;-62
2022/05/15 01:44:18;;;;;;;1.27;0.70;;;20.80;94.50;;;;;;5119887;27;20454;-62
2022/05/15 01:46:49;;;;;;;0.70;0.70;;;20.80;95.70;;;;;;5118613;27;20547;-63
2022/05/15 01:49:23;;;;;;;1.10;1.00;;;20.80;95.10;;;;;;5122176;28;20452;-63
2022/05/15 01:51:56;;;;;;;0.50;0.50;;;20.80;95.10;;;;;;5128629;27;20500;-62
2022/05/15 01:54:27;;;;;;;2.10;1.93;;;20.70;96.50;;;;;;5107507;27;20486;-63
2022/05/15 01:56:58;;;;;;;1.20;1.10;;;20.60;95.80;;;;;;5126969;27;20464;-63
2022/05/15 01:59:29;;;;;;;3.10;2.83;;;20.60;96.00;;;;;;5120623;28;20469;-64
2022/05/15 02:02:00;;;;;;;1.40;1.30;;;20.60;96.20;;;;;;5120666;27;20464;-65
2022/05/15 02:04:31;;;;;;;3.93;3.67;;;20.60;96.20;;;;;;5122702;28;20525;-63
2022/05/15 02:07:04;;;;;;;8.63;7.80;;;20.40;96.30;;;;;;5122778;28;20841;-65
2022/05/15 02:09:35;;;;;;;1.73;1.63;;;20.50;96.40;;;;;;5128176;27;20534;-65
2022/05/15 02:12:07;;;;;;;2.00;1.80;;;20.50;96.30;;;;;;5122275;28;20443;-65
2022/05/15 02:14:38;;;;;;;3.00;1.10;;;20.40;96.60;;;;;;5114438;27;20442;-65
2022/05/15 02:17:09;;;;;;;0.70;0.70;;;20.30;96.30;;;;;;5121369;28;20790;-65
2022/05/15 02:19:39;;;;;;;1.63;0.60;;;20.30;96.40;;;;;;5121486;28;20432;-65
2022/05/15 02:22:13;;;;;;;0.60;0.60;;;20.20;97.30;;;;;;5139185;27;20520;-63
2022/05/15 02:24:44;;;;;;;1.57;0.50;;;20.10;96.90;;;;;;5120241;28;20555;-63
2022/05/15 02:27:15;;;;;;;0.80;0.80;;;20.00;96.80;;;;;;5122009;28;20473;-65
2022/05/15 02:29:46;;;;;;;1.63;0.70;;;19.90;98.00;;;;;;5123378;28;20448;-62
2022/05/15 02:32:16;;;;;;;1.40;0.90;;;19.80;98.50;;;;;;5122314;28;20445;-62
2022/05/15 02:34:47;;;;;;;1.00;0.80;;;19.80;98.20;;;;;;5121766;28;20462;-62
2022/05/15 02:37:19;;;;;;;0.77;0.77;;;19.70;98.30;;;;;;5123356;28;20465;-62
2022/05/15 02:39:50;;;;;;;1.30;1.00;;;19.70;98.40;;;;;;5120612;27;20457;-62
2022/05/15 02:42:21;;;;;;;1.53;0.67;;;19.50;99.20;;;;;;5123604;28;20448;-63
2022/05/15 02:44:53;;;;;;;1.20;0.70;;;19.50;98.30;;;;;;5121508;28;20462;-62
2022/05/15 02:47:23;;;;;;;1.60;0.70;;;19.50;99.90;;;;;;5121053;28;20425;-63
2022/05/15 02:52:44;;;;;;;1.17;0.97;;;19.50;98.50;;;;;;5124164;28;20484;-62
2022/05/15 02:55:15;;;;;;;0.80;0.80;;;19.50;98.70;;;;;;5124437;27;20454;-63
2022/05/15 02:57:47;;;;;;;1.00;0.87;;;19.30;99.90;;;;;;5124508;28;20462;-62
2022/05/15 03:00:20;;;;;;;1.10;0.70;;;19.30;99.50;;;;;;5120247;28;20483;-63
2022/05/15 03:02:51;;;;;;;1.00;0.90;;;19.30;99.90;;;;;;5119888;28;20440;-62
2022/05/15 03:05:22;;;;;;;0.70;0.63;;;19.20;99.90;;;;;;5135494;28;20456;-62
2022/05/15 03:07:55;;;;;;;0.70;0.70;;;19.10;99.90;;;;;;5140500;27;20419;-62
2022/05/15 03:10:25;;;;;;;1.13;1.00;;;19.00;99.90;;;;;;5139524;27;20429;-62
2022/05/15 03:12:56;;;;;;;0.70;0.70;;;19.00;99.90;;;;;;5124717;28;20494;-62
2022/05/15 03:15:27;;;;;;;0.80;0.80;;;19.10;99.90;;;;;;5112116;28;20454;-62
2022/05/15 03:17:59;;;;;;;1.20;1.10;;;19.10;99.90;;;;;;5141983;28;20444;-62
2022/05/15 03:20:29;;;;;;;0.80;0.80;;;18.90;99.90;;;;;;5121123;28;20454;-62
2022/05/15 03:23:02;;;;;;;0.90;0.90;;;18.80;99.90;;;;;;5121343;28;20444;-61
2022/05/15 03:25:33;;;;;;;2.93;1.10;;;18.80;99.90;;;;;;5118167;28;20443;-62
2022/05/15 03:28:09;;;;;;;1.67;1.57;;;18.70;99.90;;;;;;5115522;27;20464;-62
2022/05/15 03:30:41;;;;;;;1.00;1.00;;;18.70;99.90;;;;;;5115726;28;20459;-63
2022/05/15 03:33:12;;;;;;;1.40;1.30;;;18.80;99.90;;;;;;5119601;27;20496;-61
2022/05/15 03:35:43;;;;;;;1.30;1.20;;;18.80;99.90;;;;;;5120991;28;20455;-61
2022/05/15 03:38:16;;;;;;;1.90;1.20;;;18.80;99.90;;;;;;5112568;27;20781;-62
2022/05/15 03:40:46;;;;;;;1.63;1.40;;;18.70;99.90;;;;;;5123568;27;20834;-62
2022/05/15 03:43:17;;;;;;;2.90;1.40;;;18.70;99.90;;;;;;5120485;27;20941;-62
2022/05/15 03:45:48;;;;;;;3.43;1.33;;;18.50;99.90;;;;;;5121620;27;20513;-62
2022/05/15 03:48:19;;;;;;;1.47;1.37;;;18.40;99.90;;;;;;5111350;27;20473;-61
2022/05/15 03:50:49;;;;;;;1.50;1.40;;;18.30;99.90;;;;;;5128165;27;20476;-61
2022/05/15 03:53:23;;;;;;;1.57;1.47;;;18.20;99.90;;;;;;5123087;27;20482;-61
2022/05/15 03:55:56;;;;;;;1.33;1.30;;;18.30;99.90;;;;;;5125510;27;20424;-62
2022/05/15 03:58:29;;;;;;;3.00;1.70;;;18.30;99.90;;;;;;5118054;27;20435;-62
2022/05/15 04:00:59;;;;;;;1.67;1.53;;;18.30;99.90;;;;;;5116565;27;20436;-62
2022/05/15 04:03:31;;;;;;;1.33;1.23;;;18.30;99.90;;;;;;5110288;27;20429;-62
2022/05/15 04:06:02;;;;;;;1.30;1.20;;;18.30;99.90;;;;;;5110282;27;20454;-62
2022/05/15 04:08:34;;;;;;;2.17;1.60;;;18.30;99.90;;;;;;5116018;27;20437;-61
2022/05/15 04:11:05;;;;;;;2.53;2.00;;;18.20;99.90;;;;;;5110123;27;20439;-61
2022/05/15 04:13:36;;;;;;;2.00;1.90;;;18.20;99.90;;;;;;5114578;27;20512;-61
2022/05/15 04:16:07;;;;;;;2.50;1.93;;;18.20;99.90;;;;;;5122987;27;20451;-62
2022/05/15 04:18:38;;;;;;;2.60;1.90;;;18.20;99.90;;;;;;5120645;27;20436;-61
2022/05/15 04:21:10;;;;;;;3.10;2.20;;;18.00;99.90;;;;;;5118418;27;20481;-61
2022/05/15 04:23:46;;;;;;;2.10;1.90;;;18.00;99.90;;;;;;5123719;27;20514;-61
2022/05/15 04:26:17;;;;;;;1.87;1.77;;;18.20;99.90;;;;;;5122549;27;20459;-62
2022/05/15 04:28:48;;;;;;;1.70;1.60;;;18.20;99.90;;;;;;5110338;27;20447;-62
2022/05/15 04:31:19;;;;;;;1.77;1.67;;;18.20;99.90;;;;;;5118999;27;20441;-62
2022/05/15 04:33:50;;;;;;;1.70;1.60;;;18.20;99.90;;;;;;5115068;28;20493;-61
2022/05/15 04:36:21;;;;;;;1.90;1.70;;;18.10;99.90;;;;;;5121413;28;20547;-62
2022/05/15 04:38:53;;;;;;;1.40;1.30;;;18.10;99.90;;;;;;5123938;27;20440;-61
2022/05/15 04:41:26;;;;;;;1.73;1.63;;;18.10;99.90;;;;;;5121129;28;20575;-62
2022/05/15 04:43:57;;;;;;;2.03;1.40;;;18.00;99.90;;;;;;5120836;27;20528;-61
2022/05/15 04:46:29;;;;;;;1.70;1.60;;;18.00;99.90;;;;;;5124465;27;20489;-62
2022/05/15 04:49:00;;;;;;;1.90;1.80;;;17.90;99.90;;;;;;5116021;27;20453;-61
2022/05/15 04:51:31;;;;;;;2.80;2.47;;;17.90;99.90;;;;;;5118087;27;20493;-62
2022/05/15 04:54:04;;;;;;;2.00;1.80;;;17.90;99.90;;;;;;5110252;27;20589;-62
2022/05/15 04:56:35;;;;;;;2.73;2.53;;;17.90;99.90;;;;;;5122861;27;20428;-62
2022/05/15 04:59:06;;;;;;;2.00;1.90;;;17.90;99.90;;;;;;5131687;27;20522;-62
2022/05/15 05:01:37;;;;;;;1.70;1.60;;;18.00;99.90;;;;;;5144737;27;20437;-62
2022/05/15 05:04:07;;;;;;;1.93;1.70;;;17.90;99.90;;;;;;5139737;27;20453;-62
2022/05/15 05:06:38;;;;;;;2.13;1.63;;;17.90;99.90;;;;;;5123535;27;20435;-62
2022/05/15 05:09:11;;;;;;;2.20;1.50;;;17.90;99.90;;;;;;5122869;28;20519;-62
2022/05/15 05:11:41;;;;;;;1.50;1.40;;;17.90;99.90;;;;;;5124817;27;20489;-62
2022/05/15 05:14:12;;;;;;;4.27;2.47;;;17.80;99.90;;;;;;5137032;27;20459;-62
2022/05/15 05:16:43;;;;;;;1.90;1.43;;;17.80;99.90;;;;;;5125656;27;20435;-62
2022/05/15 05:19:14;;;;;;;3.20;1.70;;;17.80;99.90;;;;;;5119427;27;20429;-61
2022/05/15 05:21:44;;;;;;;2.10;1.50;;;17.80;99.90;;;;;;5114916;27;20541;-62
2022/05/15 05:24:17;;;;;;;1.30;1.20;;;17.80;99.90;;;;;;5109863;27;20454;-61
2022/05/15 05:26:48;;;;;;;1.90;1.40;;;17.80;99.90;;;;;;5120922;28;20546;-62
2022/05/15 05:29:18;;;;;;;1.83;1.40;;;17.70;99.90;;;;;;5129542;27;20399;-61
2022/05/15 05:31:49;;;;;;;1.87;1.67;;;17.70;99.90;;;;;;5129570;27;20511;-62
2022/05/15 05:34:21;;;;;;;1.60;1.50;;;17.60;99.90;;;;;;5132070;27;20464;-62
2022/05/15 05:36:52;;;;;;;1.90;1.80;;;17.60;99.90;;;;;;5116617;27;20469;-62
2022/05/15 05:39:24;;;;;;;1.40;1.30;;;17.50;99.90;;;;;;5121694;28;20428;-62
2022/05/15 05:41:55;;;;;;;1.73;1.63;;;17.50;99.90;;;;;;5122870;28;20525;-62
2022/05/15 05:44:26;;;;;;;1.87;1.70;;;17.50;99.90;;;;;;5123598;28;20446;-63
2022/05/15 05:46:56;;;;;;;2.50;1.80;;;17.50;99.90;;;;;;5125176;27;20476;-61
2022/05/15 05:49:27;;;;;;;3.70;2.27;;;17.50;99.90;;;;;;5132276;27;20491;-63
2022/05/15 05:51:58;;;;;;;1.90;1.43;;;17.50;99.90;;;;;;5132000;27;20470;-60
2022/05/15 05:54:31;;;;;;;1.30;1.30;;;17.40;99.90;;;;;;5117372;28;20492;-62
2022/05/15 05:57:01;;;;;;;3.20;1.77;;;17.50;99.90;;;;;;5123983;27;20449;-61
2022/05/15 05:59:32;;;;;;;1.43;1.33;;;17.50;99.90;;;;;;5134834;27;20488;-62
2022/05/15 06:02:03;;;;;;;1.70;1.27;;;17.40;99.90;;;;;;5123323;28;20454;-62
2022/05/15 06:04:44;;;;;;;1.40;1.30;;;17.40;99.90;;;;;;5122975;28;20450;-62
2022/05/15 06:07:18;;;;;;;1.50;1.37;;;17.30;99.90;;;;;;5137694;27;20468;-62
2022/05/15 06:09:52;;;;;;;1.37;1.17;;;17.20;99.90;;;;;;5127491;27;20470;-62
2022/05/15 06:12:25;;;;;;;1.40;1.30;;;17.20;99.90;;;;;;5136731;27;20548;-62
2022/05/15 06:14:56;;;;;;;0.97;0.97;;;17.10;99.90;;;;;;5136375;27;20482;-62
2022/05/15 06:17:28;;;;;;;1.20;1.10;;;17.00;99.90;;;;;;5128901;28;20456;-62
2022/05/15 06:19:59;;;;;;;1.13;1.10;;;17.00;99.90;;;;;;5143185;27;20431;-62
2022/05/15 06:22:30;;;;;;;1.10;1.00;;;17.00;99.90;;;;;;5132423;27;20495;-62
2022/05/15 06:25:06;;;;;;;1.30;1.20;;;16.90;99.90;;;;;;5121416;28;20943;-62
2022/05/15 06:27:39;;;;;;;1.63;1.37;;;16.70;99.90;;;;;;5121174;28;20461;-62
2022/05/15 06:30:12;;;;;;;2.07;1.10;;;16.60;99.90;;;;;;5128285;28;20827;-62
2022/05/15 06:32:43;;;;;;;1.70;1.00;;;16.60;99.90;;;;;;5121208;28;20458;-62
2022/05/15 06:35:15;;;;;;;1.40;1.30;;;16.50;99.90;;;;;;5121973;28;20829;-62
2022/05/15 06:37:47;;;;;;;1.60;1.50;;;16.40;99.90;;;;;;5121204;28;20447;-63
2022/05/15 06:40:19;;;;;;;1.37;1.27;;;16.30;99.90;;;;;;5119947;28;20526;-62
2022/05/15 06:42:50;;;;;;;1.40;1.30;;;16.30;99.90;;;;;;5124315;28;20469;-62
2022/05/15 06:45:21;;;;;;;1.60;1.07;;;16.30;99.90;;;;;;5122144;28;20458;-61
2022/05/15 06:47:52;;;;;;;1.60;1.50;;;16.20;99.90;;;;;;5125254;28;20469;-61
2022/05/15 06:50:23;;;;;;;2.17;1.00;;;16.30;99.90;;;;;;5121478;28;20444;-62
2022/05/15 06:52:55;;;;;;;1.50;1.40;;;16.20;99.90;;;;;;5126160;28;20447;-62
2022/05/15 06:55:28;;;;;;;1.37;1.27;;;16.20;99.90;;;;;;5120702;28;20626;-62
2022/05/15 06:57:57;;;;;;;1.57;1.10;;;16.10;99.90;;;;;;5123049;28;20458;-62
2022/05/15 07:00:30;;;;;;;1.53;1.43;;;16.10;99.90;;;;;;5143486;27;20958;-61
2022/05/15 07:03:01;;;;;;;0.87;0.87;;;16.00;99.90;;;;;;5136540;27;20454;-62
2022/05/15 07:05:33;;;;;;;1.40;1.30;;;16.00;99.90;;;;;;5122020;27;20469;-61
2022/05/15 07:08:06;;;;;;;1.00;1.00;;;16.00;99.90;;;;;;5126630;27;20465;-61
2022/05/15 07:10:39;;;;;;;2.87;1.47;;;16.00;99.90;;;;;;5122136;28;20775;-61
2022/05/15 07:13:10;;;;;;;1.60;1.40;;;15.90;99.90;;;;;;5131692;27;20461;-62
2022/05/15 07:15:41;;;;;;;1.90;1.70;;;16.00;99.90;;;;;;5126127;28;20576;-61
2022/05/15 07:18:12;;;;;;;1.30;1.20;;;16.00;99.90;;;;;;5127485;27;20810;-61
2022/05/15 07:20:43;;;;;;;1.33;1.23;;;16.00;99.90;;;;;;5132198;27;20488;-61
2022/05/15 07:23:13;;;;;;;1.73;1.43;;;16.00;99.90;;;;;;5127809;27;20460;-61
2022/05/15 07:25:47;;;;;;;1.53;1.20;;;16.00;99.90;;;;;;5125251;27;20449;-61
2022/05/15 07:28:18;;;;;;;1.30;1.20;;;16.00;99.90;;;;;;5126265;27;20432;-61
2022/05/15 07:30:50;;;;;;;1.53;1.30;;;16.00;99.90;;;;;;5136149;27;20469;-61
2022/05/15 07:33:22;;;;;;;1.30;1.20;;;16.00;99.90;;;;;;5125412;27;20500;-61
2022/05/15 07:35:53;;;;;;;1.60;1.37;;;16.00;99.90;;;;;;5124840;27;20493;-61
2022/05/15 07:38:24;;;;;;;1.20;1.10;;;16.10;99.90;;;;;;5123509;28;20546;-61
2022/05/15 07:40:57;;;;;;;1.73;1.63;;;16.00;99.90;;;;;;5125227;27;20461;-63
2022/05/15 07:43:29;;;;;;;1.27;1.17;;;16.00;99.90;;;;;;5128930;27;20477;-62
2022/05/15 07:46:00;;;;;;;1.50;1.30;;;16.00;99.90;;;;;;5134157;27;20456;-62
2022/05/15 07:48:31;;;;;;;2.27;1.23;;;16.00;99.90;;;;;;5133286;27;20488;-62
2022/05/15 07:51:01;;;;;;;1.40;1.30;;;16.00;99.90;;;;;;5135356;27;20548;-62
2022/05/15 07:53:32;;;;;;;1.33;1.23;;;15.90;99.90;;;;;;5114496;27;20462;-62
2022/05/15 07:56:09;;;;;;;0.93;0.93;;;16.00;99.90;;;;;;5123522;27;20495;-62
2022/05/15 07:58:40;;;;;;;1.00;1.00;;;16.00;99.90;;;;;;5124086;27;20472;-62
2022/05/15 08:01:11;;;;;;;1.20;1.10;;;16.10;99.90;;;;;;5124617;28;20459;-62
2022/05/15 08:03:43;;;;;;;1.60;1.50;;;16.20;99.90;;;;;;5124174;27;20458;-62
2022/05/15 08:09:04;;;;;;;1.40;1.30;;;16.10;99.90;;;;;;5122259;27;20461;-62
2022/05/15 08:11:37;;;;;;;2.10;1.10;;;16.10;99.90;;;;;;5124802;28;20465;-62
2022/05/15 08:14:09;;;;;;;1.13;1.03;;;16.10;99.90;;;;;;5120349;27;20446;-62
2022/05/15 08:16:40;;;;;;;1.40;1.30;;;16.10;99.90;;;;;;5122122;27;20474;-62
2022/05/15 08:24:46;;;;;;;1.63;1.17;;;16.10;99.90;;;;;;5129718;27;20465;-62
2022/05/15 08:27:19;;;;;;;2.50;1.10;;;16.10;99.90;;;;;;5123579;28;20450;-62
2022/05/15 08:29:49;;;;;;;1.37;1.27;;;16.20;99.90;;;;;;5128512;27;20461;-62
2022/05/15 08:32:21;;;;;;;1.87;1.30;;;16.10;99.90;;;;;;5131642;27;20453;-62
2022/05/15 08:34:52;;;;;;;0.93;0.80;;;16.00;99.90;;;;;;5130897;27;20931;-62
2022/05/15 08:37:23;;;;;;;1.20;1.10;;;15.90;99.90;;;;;;5125580;27;20460;-62
2022/05/15 08:39:54;;;;;;;1.37;1.03;;;15.80;99.90;;;;;;5138500;27;20477;-62
2022/05/15 08:42:37;;;;;;;2.30;1.20;;;15.80;99.90;;;;;;5131561;27;20452;-62
2022/05/15 08:45:14;;;;;;;1.30;1.20;;;15.80;99.90;;;;;;5131274;27;20440;-62
2022/05/15 08:47:47;;;;;;;1.47;1.10;;;15.80;99.90;;;;;;5124590;28;20468;-62
2022/05/15 08:50:21;;;;;;;1.00;1.00;;;15.80;99.90;;;;;;5125181;27;20460;-62
2022/05/15 08:52:56;;;;;;;1.30;1.07;;;15.80;99.90;;;;;;5123625;28;20453;-62
2022/05/15 08:55:39;;;;;;;1.37;1.27;;;15.70;99.90;;;;;;5119844;28;20472;-62
2022/05/15 08:58:16;;;;;;;1.30;1.20;;;15.70;99.90;;;;;;5123033;27;20475;-62
2022/05/15 09:00:49;;;;;;;2.93;1.30;;;15.70;99.90;;;;;;5117712;27;20556;-62
2022/05/15 09:03:23;;;;;;;1.30;1.20;;;15.70;99.90;;;;;;5134427;27;20475;-62
2022/05/15 09:06:01;;;;;;;1.53;1.43;;;15.70;99.90;;;;;;5118794;28;20453;-62
2022/05/15 09:08:59;;;;;;;1.50;1.40;;;15.70;99.90;;;;;;5121618;27;20464;-62
2022/05/15 09:11:48;;;;;;;1.67;1.20;;;15.80;99.90;;;;;;5124291;28;20454;-62
2022/05/15 09:14:32;;;;;;;1.33;1.23;;;15.80;99.90;;;;;;5122535;27;20559;-61
2022/05/15 09:17:17;;;;;;;1.10;1.00;;;15.80;99.90;;;;;;5122834;27;20519;-61
2022/05/15 09:19:52;;;;;;;0.93;0.90;;;15.80;99.90;;;;;;5122921;28;20473;-61
2022/05/15 09:22:24;;;;;;;2.00;1.20;;;15.70;99.90;;;;;;5123435;27;20467;-61
2022/05/15 09:24:55;;;;;;;1.50;1.40;;;15.70;99.90;;;;;;5121946;27;20458;-61
2022/05/15 09:27:28;;;;;;;1.30;0.90;;;15.70;99.90;;;;;;5133897;27;20465;-61
2022/05/15 09:30:08;;;;;;;1.63;1.20;;;15.80;99.90;;;;;;5123642;27;20457;-61
2022/05/15 09:32:41;;;;;;;1.00;1.00;;;15.80;99.90;;;;;;5127171;27;20424;-61
2022/05/15 09:35:31;;;;;;;1.23;1.20;;;15.70;99.90;;;;;;5122350;27;20477;-61
2022/05/15 09:43:54;;;;;;;1.20;1.20;;;15.70;99.90;;;;;;5124079;27;20483;-61
2022/05/15 09:46:28;;;;;;;1.10;1.00;;;15.70;99.90;;;;;;5129166;27;20465;-61
2022/05/15 09:49:01;;;;;;;1.40;1.30;;;15.70;99.90;;;;;;5126174;27;20537;-61
2022/05/15 09:51:40;;;;;;;1.40;1.30;;;15.70;99.90;;;;;;5122226;27;20474;-61
2022/05/15 09:54:30;;;;;;;1.03;1.00;;;15.70;99.90;;;;;;5109200;28;20424;-61
2022/05/15 09:57:22;;;;;;;1.33;1.23;;;15.70;99.90;;;;;;5123184;28;20884;-61
2022/05/15 10:00:05;;;;;;;1.00;1.00;;;15.70;99.90;;;;;;5123323;27;20453;-61
2022/05/15 10:02:45;;;;;;;1.07;1.00;;;15.70;99.90;;;;;;5122661;27;20461;-61
2022/05/15 10:05:24;;;;;;;1.43;1.33;;;15.70;99.90;;;;;;5122249;27;20469;-61
2022/05/15 10:08:02;;;;;;;1.00;0.90;;;15.70;99.90;;;;;;5119703;28;20561;-61
2022/05/15 10:10:37;;;;;;;1.30;1.20;;;15.70;99.90;;;;;;5123158;27;20461;-60
2022/05/15 10:13:11;;;;;;;1.40;1.10;;;15.70;99.90;;;;;;5120274;27;20472;-61
2022/05/15 10:15:45;;;;;;;1.67;1.50;;;15.60;99.90;;;;;;5122657;28;20445;-61
2022/05/15 10:18:22;;;;;;;1.73;1.50;;;15.70;99.90;;;;;;5136703;27;20481;-61
2022/05/15 10:20:54;;;;;;;1.57;1.47;;;15.70;99.90;;;;;;5121847;28;20461;-60
2022/05/15 10:23:29;;;;;;;1.70;1.60;;;15.70;99.90;;;;;;5123646;28;20466;-60
2022/05/15 10:26:04;;;;;;;1.90;1.30;;;15.70;99.90;;;;;;5121412;28;20483;-60
2022/05/15 10:28:44;;;;;;;1.50;1.17;;;15.70;99.90;;;;;;5122222;28;20461;-60
2022/05/15 10:31:27;;;;;;;1.60;1.50;;;15.60;99.90;;;;;;5122361;28;20924;-60
2022/05/15 10:34:03;;;;;;;1.70;1.60;;;15.60;99.90;;;;;;5123522;28;20484;-62
2022/05/15 10:36:47;;;;;;;1.57;1.43;;;15.60;99.90;;;;;;5128623;27;20496;-60
2022/05/15 10:39:30;;;;;;;1.60;1.43;;;15.60;99.90;;;;;;5115307;28;20458;-60
2022/05/15 10:42:15;;;;;;;1.60;1.50;;;15.60;99.90;;;;;;5126449;27;20465;-61
2022/05/15 10:44:58;;;;;;;2.60;1.90;;;15.60;99.90;;;;;;5130951;27;20821;-60
2022/05/15 10:47:33;;;;;;;1.60;1.50;;;15.60;99.90;;;;;;5114236;27;20477;-60
2022/05/15 10:50:24;;;;;;;1.30;1.20;;;15.60;99.90;;;;;;5125725;27;20481;-60
2022/05/15 10:59:04;;;;;;;1.30;1.20;;;15.50;99.90;;;;;;5121815;27;20782;-60
2022/05/15 11:01:45;;;;;;;1.50;1.40;;;15.60;99.90;;;;;;5150113;27;20428;-60
2022/05/15 11:04:18;;;;;;;1.90;1.73;;;15.60;99.90;;;;;;5116273;27;20431;-60
2022/05/15 11:06:57;;;;;;;1.40;1.30;;;15.60;99.90;;;;;;5131191;27;20461;-60
2022/05/15 11:09:37;;;;;;;1.63;1.40;;;15.60;99.90;;;;;;5120680;27;20461;-60
2022/05/15 11:12:25;;;;;;;1.87;1.30;;;15.60;99.90;;;;;;5125292;27;20468;-60
2022/05/15 11:15:13;;;;;;;1.80;1.70;;;15.60;99.90;;;;;;5129237;27;20460;-60
2022/05/15 11:17:51;;;;;;;1.93;1.50;;;15.50;99.90;;;;;;5122056;27;20559;-60
2022/05/15 11:20:25;;;;;;;2.00;1.10;;;15.50;99.90;;;;;;5125817;28;20491;-60
2022/05/15 11:23:06;;;;;;;1.40;1.30;;;15.40;99.90;;;;;;5124299;28;20457;-60
2022/05/15 11:25:44;;;;;;;2.63;1.30;;;15.40;99.90;;;;;;5125224;27;20449;-60
2022/05/15 11:28:21;;;;;;;1.33;1.23;;;15.40;99.90;;;;;;5139860;27;20457;-60
2022/05/15 11:31:02;;;;;;;1.57;1.27;;;15.40;99.90;;;;;;5106826;27;20517;-60
2022/05/15 11:33:49;;;;;;;1.23;1.20;;;15.30;99.90;;;;;;5127086;27;20469;-60
2022/05/15 11:36:35;;;;;;;1.73;1.57;;;15.30;99.90;;;;;;5125795;27;20457;-60
2022/05/15 11:39:24;;;;;;;1.53;1.43;;;15.20;99.90;;;;;;5129038;27;20493;-60
2022/05/15 11:42:14;;;;;;;2.90;1.70;;;15.20;99.90;;;;;;5111466;27;20458;-60
2022/05/15 11:44:48;;;;;;;2.50;1.53;;;15.10;99.90;;;;;;5126646;27;20457;-60
2022/05/15 11:47:34;;;;;;;2.80;1.50;;;15.10;99.90;;;;;;5125520;27;20466;-60
2022/05/15 11:50:12;;;;;;;2.23;1.47;;;15.00;99.90;;;;;;5113940;28;20485;-61
2022/05/15 11:53:04;;;;;;;1.70;1.60;;;15.00;99.90;;;;;;5124795;28;20485;-60
2022/05/15 11:55:57;;;;;;;1.50;1.33;;;15.00;99.90;;;;;;5132233;27;20560;-60
2022/05/15 11:58:36;;;;;;;1.50;1.40;;;14.90;99.90;;;;;;5131374;27;20484;-60
2022/05/15 12:01:12;;;;;;;1.53;1.37;;;14.80;99.90;;;;;;5125384;27;20458;-60
2022/05/15 12:03:55;;;;;;;1.40;1.30;;;14.70;99.90;;;;;;5121335;27;20457;-60
2022/05/15 12:06:28;;;;;;;2.13;1.77;;;14.70;99.90;;;;;;5126791;27;20490;-60
2022/05/15 12:09:32;;;;;;;1.37;1.27;;;14.70;99.90;;;;;;5123232;27;20458;-61
2022/05/15 12:12:46;;;;;;;1.90;1.77;;;14.60;99.90;;;;;;5132168;27;20449;-61
2022/05/15 12:15:39;;;;;;;1.83;1.63;;;14.60;99.90;;;;;;5144868;27;20445;-60
2022/05/15 12:18:27;;;;;;;1.80;1.70;;;14.60;99.90;;;;;;5124715;27;20477;-61
2022/05/15 12:20:58;;;;;;;1.93;1.73;;;14.50;99.90;;;;;;5124893;27;20917;-61
2022/05/15 12:23:36;;;;;;;1.70;1.60;;;14.40;99.90;;;;;;5138182;27;20564;-61
2022/05/15 12:26:17;;;;;;;2.23;1.90;;;14.40;99.90;;;;;;5132925;27;21105;-61
2022/05/15 12:28:57;;;;;;;1.97;1.87;;;14.40;99.90;;;;;;5123813;28;20560;-61
2022/05/15 12:31:34;;;;;;;1.87;1.70;;;14.40;99.90;;;;;;5125119;27;20465;-61
2022/05/15 12:34:15;;;;;;;1.60;1.50;;;14.30;99.90;;;;;;5126590;27;20493;-61
2022/05/15 12:36:53;;;;;;;1.97;1.70;;;14.30;99.90;;;;;;5132202;27;20556;-61
2022/05/15 12:39:26;;;;;;;1.83;1.73;;;14.30;99.90;;;;;;5124097;27;20983;-61
2022/05/15 12:42:02;;;;;;;2.40;2.00;;;14.40;99.90;;;;;;5107923;28;20488;-61
2022/05/15 12:44:36;;;;;;;2.23;2.03;;;14.40;99.90;;;;;;5122487;28;20453;-60
2022/05/15 12:47:09;;;;;;;1.90;1.80;;;14.40;99.90;;;;;;5132784;27;20464;-61
2022/05/15 12:49:44;;;;;;;2.30;2.10;;;14.40;99.90;;;;;;5120023;27;20831;-61
2022/05/15 12:52:27;;;;;;;2.80;2.20;;;14.40;99.90;;;;;;5124305;27;20603;-61
2022/05/15 12:55:00;;;;;;;2.30;2.10;;;14.40;99.90;;;;;;5111497;27;20458;-60
2022/05/15 12:57:30;;;;;;;2.10;2.00;;;14.50;99.90;;;;;;5116399;27;20468;-61
2022/05/15 13:00:13;;;;;;;2.27;2.17;;;14.50;99.90;;;;;;5119541;28;20586;-61
2022/05/15 13:02:45;;;;;;;1.93;1.83;;;14.50;99.90;;;;;;5123652;27;20445;-61
2022/05/15 13:05:24;;;;;;;2.13;2.03;;;14.50;99.90;;;;;;5123388;28;20468;-61
2022/05/15 13:07:57;;;;;;;1.87;1.77;;;14.60;99.90;;;;;;5129406;27;20457;-61
2022/05/15 13:10:36;;;;;;;2.17;2.07;;;14.60;99.90;;;;;;5116127;27;20486;-61
2022/05/15 13:13:19;;;;;;;2.30;2.00;;;14.70;99.90;;;;;;5121724;28;20492;-61
2022/05/15 13:15:55;;;;;;;2.03;1.87;;;14.70;99.90;;;;;;5122404;27;20461;-61
2022/05/15 13:18:28;;;;;;;2.23;2.03;;;14.60;99.90;;;;;;5122169;28;20481;-62
2022/05/15 13:21:04;;;;;;;2.27;2.00;;;14.70;99.90;;;;;;5123587;27;20454;-61
2022/05/15 13:23:37;;;;;;;1.77;1.67;;;14.70;99.90;;;;;;5124787;27;20476;-61
2022/05/15 13:26:12;;;;;;;2.37;1.87;;;14.80;99.90;;;;;;5109799;27;20459;-61
2022/05/15 13:28:43;;;;;;;3.27;2.13;;;14.80;99.90;;;;;;5134747;27;20483;-61
2022/05/15 13:31:15;;;;;;;1.73;1.63;;;14.80;99.90;;;;;;5125823;27;20462;-61
2022/05/15 13:33:47;;;;;;;2.50;2.30;;;14.90;99.90;;;;;;5115135;28;20466;-61
2022/05/15 13:36:19;;;;;;;2.53;2.00;;;14.90;99.90;;;;;;5123224;27;20457;-61
2022/05/15 13:44:40;;;;;;;2.17;1.97;;;15.00;99.90;;;;;;5120981;27;20483;-61
2022/05/15 13:47:16;;;;;;;2.20;2.00;;;15.00;99.90;;;;;;5121685;27;20480;-61
2022/05/15 13:49:52;;;;;;;2.13;1.93;;;15.00;99.90;;;;;;5118216;28;20477;-61
2022/05/15 13:52:27;;;;;;;2.47;1.80;;;15.20;99.90;;;;;;5113756;27;20465;-61
2022/05/15 13:54:59;;;;;;;1.60;1.50;;;15.30;99.90;;;;;;5120897;28;20453;-60